Weather at Charles de Gaulle International Airport

Public forecast

Using degrees Celsius for public forecast. Weather courtesy of forecast.io.

Current aviation weather report (METAR) for Charles de Gaulle International Airport

Retrieved 2021/01/26 07:30 UTC (0 seconds ago):

LFPG 260730Z 23006KT CAVOK M00/M02 Q1021 NOSIG

Aviation forecast (TAF) for Charles de Gaulle International Airport

Retrieved 2021/01/26 06:42 UTC (45 minutes ago):

TAF LFPG 260500Z 2606/2712 24008KT CAVOK TX09/2712Z TNM01/2606Z BECMG 2616/2618 19010KT PROB30 TEMPO 2621/2623 4000 -RASN BECMG 2700/2702 BKN008 BECMG 2703/2705 BKN003 PROB40 TEMPO 2706/2712 2000 -DZ BR BKN002 BECMG 2706/2709 25008KT